Time;durP1;ratioP1;P1;durP2;ratioP2;P2;SDS_P1;SDS_P2;PMS_P1;PMS_P2;Temp;Humidity;BMP_temperature;BMP_pressure;BME280_temperature;BME280_humidity;BME280_pressure;Samples;Min_cycle;Max_cycle;Signal;HPM_P1;HPM_P2
2023/04/17 00:00:21;;;;;;;11.10;9.15;;;;;;;9.06;100.00;92368.78;5087065;28;21054;-72
2023/04/17 00:02:48;;;;;;;10.50;7.60;;;;;;;9.04;100.00;92360.56;5087611;28;20036;-72
2023/04/17 00:05:16;;;;;;;8.75;6.85;;;;;;;8.96;100.00;92343.72;5083003;28;20069;-72
2023/04/17 00:07:43;;;;;;;9.15;6.57;;;;;;;9.09;100.00;92369.13;5087756;28;20439;-72
2023/04/17 00:10:11;;;;;;;8.88;5.97;;;;;;;9.09;100.00;92365.81;5087034;28;20052;-72
2023/04/17 00:12:38;;;;;;;9.30;7.22;;;;;;;9.15;100.00;92353.88;5086948;28;20553;-72
2023/04/17 00:15:05;;;;;;;8.18;5.95;;;;;;;9.15;100.00;92348.75;5087011;28;20047;-73
2023/04/17 00:17:32;;;;;;;7.85;5.57;;;;;;;9.14;100.00;92350.56;5086709;28;20048;-73
2023/04/17 00:19:58;;;;;;;10.63;6.25;;;;;;;9.15;100.00;92346.97;5087312;28;20051;-72
2023/04/17 00:22:26;;;;;;;9.73;6.63;;;;;;;9.17;100.00;92346.75;5086389;28;20052;-72
2023/04/17 00:24:53;;;;;;;9.65;6.53;;;;;;;9.16;100.00;92350.34;5086988;28;20051;-72
2023/04/17 00:27:20;;;;;;;12.80;8.65;;;;;;;9.00;100.00;92326.13;5086550;28;20048;-73
2023/04/17 00:29:46;;;;;;;10.55;7.55;;;;;;;9.14;100.00;92349.75;5086952;28;20136;-72
2023/04/17 00:32:13;;;;;;;7.50;5.82;;;;;;;9.15;100.00;92357.22;5087282;28;20056;-72
2023/04/17 00:34:40;;;;;;;11.93;7.35;;;;;;;9.14;100.00;92348.00;5086798;28;20048;-72
2023/04/17 00:37:07;;;;;;;12.43;8.48;;;;;;;9.17;100.00;92355.22;5087424;28;20113;-72
2023/04/17 00:39:35;;;;;;;10.88;7.30;;;;;;;9.17;100.00;92344.97;5086572;28;20044;-72
2023/04/17 00:42:02;;;;;;;12.15;8.77;;;;;;;9.14;100.00;92344.63;5086509;28;20389;-72
2023/04/17 00:44:28;;;;;;;13.02;8.95;;;;;;;9.07;100.00;92331.94;5087023;28;20043;-72
2023/04/17 00:46:55;;;;;;;11.35;7.40;;;;;;;9.06;100.00;92343.19;5086749;28;20048;-73
2023/04/17 00:49:23;;;;;;;10.65;7.60;;;;;;;9.07;100.00;92344.72;5085472;28;20048;-72
2023/04/17 00:51:50;;;;;;;11.18;8.45;;;;;;;9.03;100.00;92348.75;5078566;28;20128;-73
2023/04/17 00:54:18;;;;;;;11.32;8.00;;;;;;;9.04;100.00;92334.94;5086337;28;20571;-72
2023/04/17 00:56:46;;;;;;;10.82;7.78;;;;;;;9.04;100.00;92334.94;5086718;28;20552;-73
2023/04/17 00:59:17;;;;;;;12.32;7.60;;;;;;;9.03;100.00;92344.41;5086250;28;20881;-72
2023/04/17 01:01:44;;;;;;;11.43;7.47;;;;;;;9.03;100.00;92335.94;5087270;28;20047;-72
2023/04/17 01:04:10;;;;;;;11.43;7.95;;;;;;;8.92;100.00;92327.25;5084884;28;20056;-72
2023/04/17 01:06:37;;;;;;;10.38;7.10;;;;;;;9.04;100.00;92337.50;5086345;28;20458;-72
2023/04/17 01:09:04;;;;;;;9.23;7.13;;;;;;;9.05;100.00;92331.38;5086580;28;20110;-72
2023/04/17 01:11:30;;;;;;;10.45;7.22;;;;;;;9.05;100.00;92328.81;5086450;28;20048;-72
2023/04/17 01:13:58;;;;;;;11.32;7.63;;;;;;;9.08;100.00;92329.16;5059748;28;20089;-72
2023/04/17 01:16:26;;;;;;;9.27;6.97;;;;;;;9.08;100.00;92330.94;5086838;28;20099;-72
2023/04/17 01:18:53;;;;;;;10.40;7.40;;;;;;;9.09;100.00;92327.38;5090264;28;20081;-72
2023/04/17 01:21:20;;;;;;;9.63;6.75;;;;;;;9.10;100.00;92336.63;5090412;28;20101;-72
2023/04/17 01:23:50;;;;;;;9.27;6.97;;;;;;;9.00;100.00;92331.25;5090822;28;20482;-72
2023/04/17 01:26:19;;;;;;;12.10;6.50;;;;;;;9.02;100.00;92344.63;5089344;28;20040;-72
2023/04/17 01:28:51;;;;;;;7.40;6.10;;;;;;;8.94;100.00;92345.75;5090501;28;20048;-72
2023/04/17 01:31:18;;;;;;;7.97;5.85;;;;;;;8.89;100.00;92337.94;5090569;28;20054;-72
2023/04/17 01:33:44;;;;;;;7.45;5.70;;;;;;;8.88;100.00;92339.72;5090623;28;20539;-72
2023/04/17 01:36:11;;;;;;;9.00;5.65;;;;;;;8.89;100.00;92335.38;5090247;28;20058;-72
2023/04/17 01:38:38;;;;;;;8.80;6.60;;;;;;;8.87;100.00;92332.25;5090772;28;20044;-72
2023/04/17 01:41:09;;;;;;;8.95;6.22;;;;;;;8.91;100.00;92341.84;5089727;28;20048;-72
2023/04/17 01:43:39;;;;;;;10.80;7.88;;;;;;;8.90;100.00;92336.94;5089883;28;20040;-72
2023/04/17 01:46:06;;;;;;;8.82;7.00;;;;;;;8.80;100.00;92325.44;5089664;28;20123;-72
2023/04/17 01:48:34;;;;;;;9.70;7.00;;;;;;;8.84;100.00;92328.34;5089731;28;20836;-72
2023/04/17 01:51:01;;;;;;;9.35;6.80;;;;;;;8.87;100.00;92330.47;5090231;28;20044;-72
2023/04/17 01:53:28;;;;;;;8.18;6.65;;;;;;;8.84;100.00;92327.56;5089967;28;20121;-72
2023/04/17 01:55:55;;;;;;;9.70;6.95;;;;;;;8.74;100.00;92328.13;5089556;28;20036;-72
2023/04/17 01:58:22;;;;;;;9.85;7.32;;;;;;;8.32;100.00;92323.75;5090148;28;20052;-72
2023/04/17 02:00:50;;;;;;;10.00;7.82;;;;;;;8.29;100.00;92314.72;5089527;28;20489;-72
2023/04/17 02:03:17;;;;;;;10.48;8.45;;;;;;;8.24;100.00;92319.72;5088486;28;20056;-72
2023/04/17 02:05:46;;;;;;;11.68;8.45;;;;;;;8.18;100.00;92308.56;5089104;28;20489;-72
2023/04/17 02:08:12;;;;;;;11.95;9.75;;;;;;;8.16;100.00;92306.22;5089073;28;20048;-72
2023/04/17 02:10:39;;;;;;;11.25;10.05;;;;;;;8.14;100.00;92304.88;5089422;28;20530;-72
2023/04/17 02:13:06;;;;;;;16.63;12.35;;;;;;;8.12;100.00;92283.84;5089958;28;20044;-72
2023/04/17 02:15:33;;;;;;;32.03;19.42;;;;;;;7.99;100.00;92287.34;5089218;28;20109;-72
2023/04/17 02:18:02;;;;;;;31.85;17.52;;;;;;;8.07;100.00;92296.50;5089102;28;20090;-72
2023/04/17 02:20:29;;;;;;;18.63;12.93;;;;;;;8.07;100.00;92299.06;5089226;28;20131;-72
2023/04/17 02:22:55;;;;;;;14.75;10.88;;;;;;;8.07;100.00;92296.50;5088698;28;20110;-72
2023/04/17 02:25:22;;;;;;;14.15;9.80;;;;;;;8.10;100.00;92301.97;5089049;28;20576;-72
2023/04/17 02:27:49;;;;;;;12.73;10.30;;;;;;;8.11;100.00;92293.28;5088572;28;20103;-72
2023/04/17 02:30:16;;;;;;;12.77;10.13;;;;;;;8.22;100.00;92307.13;5089275;28;20059;-72
2023/04/17 02:32:43;;;;;;;13.25;10.57;;;;;;;8.23;100.00;92301.00;5088896;28;20102;-72
2023/04/17 02:35:12;;;;;;;13.48;9.50;;;;;;;8.22;100.00;92307.13;5089024;28;20130;-72
2023/04/17 02:37:38;;;;;;;12.13;9.27;;;;;;;8.35;100.00;92318.97;5088485;28;20051;-72
2023/04/17 02:40:06;;;;;;;12.13;9.30;;;;;;;8.38;100.00;92321.09;5088686;28;20117;-71
2023/04/17 02:42:33;;;;;;;14.25;9.80;;;;;;;8.34;100.00;92311.50;5088384;28;20553;-71
2023/04/17 02:45:00;;;;;;;14.45;10.23;;;;;;;8.39;100.00;92319.31;5089146;28;20093;-71
2023/04/17 02:47:27;;;;;;;14.90;10.73;;;;;;;8.38;100.00;92322.88;5082613;28;20044;-71
2023/04/17 02:49:55;;;;;;;15.40;11.25;;;;;;;8.35;100.00;92313.06;5085223;28;20047;-71
2023/04/17 02:52:23;;;;;;;16.77;11.98;;;;;;;8.34;100.00;92324.31;5088356;28;20143;-71
2023/04/17 02:54:49;;;;;;;16.92;12.70;;;;;;;8.37;100.00;92321.28;5088576;28;20044;-71
2023/04/17 02:57:16;;;;;;;18.13;13.32;;;;;;;8.37;100.00;92326.41;5088275;28;20090;-71
2023/04/17 02:59:43;;;;;;;16.77;12.93;;;;;;;8.35;100.00;92329.22;5088793;28;20044;-72
2023/04/17 03:02:10;;;;;;;16.55;13.38;;;;;;;8.32;100.00;92323.75;5088277;28;20121;-72
2023/04/17 03:04:37;;;;;;;19.15;13.40;;;;;;;8.28;100.00;92313.94;5079833;28;20046;-72
2023/04/17 03:07:05;;;;;;;20.88;13.65;;;;;;;8.36;100.00;92329.97;5088127;28;20048;-72
2023/04/17 03:09:33;;;;;;;16.13;12.68;;;;;;;8.33;100.00;92325.31;5087781;28;20138;-72
2023/04/17 03:12:00;;;;;;;24.00;16.75;;;;;;;8.33;100.00;92325.31;5088301;28;20055;-72
2023/04/17 03:14:27;;;;;;;25.25;18.00;;;;;;;8.33;100.00;92325.31;5088570;28;20141;-72
2023/04/17 03:16:54;;;;;;;23.30;17.35;;;;;;;8.32;100.00;92328.88;5087631;28;20516;-72
2023/04/17 03:19:20;;;;;;;12.75;9.98;;;;;;;8.31;100.00;92330.63;5088206;28;20048;-72
2023/04/17 03:21:47;;;;;;;12.60;8.80;;;;;;;8.27;100.00;92326.94;5087936;28;20048;-72
2023/04/17 03:24:14;;;;;;;12.32;8.82;;;;;;;8.23;100.00;92330.91;5088431;28;20048;-72
2023/04/17 03:26:42;;;;;;;12.45;9.50;;;;;;;8.14;100.00;92320.22;5088449;28;20416;-72
2023/04/17 03:29:08;;;;;;;13.65;9.18;;;;;;;8.24;100.00;92327.38;5088362;28;20094;-72
2023/04/17 03:31:35;;;;;;;14.20;10.48;;;;;;;8.28;100.00;92331.84;5088341;28;20043;-72
2023/04/17 03:34:02;;;;;;;11.40;9.90;;;;;;;8.31;100.00;92322.97;5088258;28;20496;-72
2023/04/17 03:36:29;;;;;;;13.68;9.27;;;;;;;8.31;100.00;92317.84;5088224;28;20127;-72
2023/04/17 03:38:56;;;;;;;13.05;8.90;;;;;;;8.27;100.00;92309.81;5088303;28;20044;-72
2023/04/17 03:41:23;;;;;;;13.32;10.07;;;;;;;8.32;100.00;92321.94;5087588;28;20059;-72
2023/04/17 03:43:51;;;;;;;14.02;9.95;;;;;;;8.36;100.00;92324.84;5074991;28;20123;-72
2023/04/17 03:46:18;;;;;;;17.33;12.63;;;;;;;8.38;100.00;92322.88;5061542;28;20052;-72
2023/04/17 03:48:45;;;;;;;14.82;11.32;;;;;;;8.44;100.00;92329.69;5087613;28;20048;-72
2023/04/17 03:51:11;;;;;;;12.85;10.70;;;;;;;8.26;100.00;92292.13;5087783;28;20558;-72
2023/04/17 03:53:38;;;;;;;15.32;11.00;;;;;;;8.47;100.00;92319.00;5087744;28;20093;-72
2023/04/17 03:56:05;;;;;;;15.68;12.30;;;;;;;8.43;100.00;92318.66;5087828;28;20484;-72
2023/04/17 03:58:32;;;;;;;11.95;9.55;;;;;;;8.46;100.00;92326.91;5088106;28;20147;-72
2023/04/17 04:01:00;;;;;;;14.00;9.57;;;;;;;8.46;100.00;92334.59;5088113;28;20039;-72
2023/04/17 04:03:27;;;;;;;15.27;10.52;;;;;;;8.48;100.00;92335.91;5087860;28;20151;-72
2023/04/17 04:05:54;;;;;;;16.25;12.18;;;;;;;8.45;100.00;92331.25;5087279;28;20090;-72
2023/04/17 04:08:22;;;;;;;14.60;10.85;;;;;;;8.42;100.00;92329.09;5087708;28;20093;-72
2023/04/17 04:10:48;;;;;;;17.60;11.93;;;;;;;8.46;100.00;92327.66;5087895;28;20055;-72
2023/04/17 04:13:15;;;;;;;19.42;11.77;;;;;;;8.49;100.00;92324.69;5087075;28;20458;-72
2023/04/17 04:15:42;;;;;;;17.02;10.85;;;;;;;8.52;100.00;92324.25;5087226;28;20508;-72
2023/04/17 04:18:10;;;;;;;17.58;11.80;;;;;;;8.58;100.00;92319.28;5087388;28;20117;-70
2023/04/17 04:20:37;;;;;;;20.63;12.75;;;;;;;8.63;100.00;92325.31;5086971;28;20040;-69
2023/04/17 04:23:04;;;;;;;15.02;11.27;;;;;;;8.66;100.00;92331.78;5087244;28;20087;-69
2023/04/17 04:25:32;;;;;;;13.57;10.30;;;;;;;8.69;100.00;92327.00;5087906;28;20052;-69
2023/04/17 04:28:00;;;;;;;15.68;10.63;;;;;;;8.68;100.00;92322.09;5087365;28;20048;-69
2023/04/17 04:30:29;;;;;;;17.08;10.55;;;;;;;8.57;100.00;92310.03;5087636;28;20419;-69
2023/04/17 04:32:56;;;;;;;19.77;11.63;;;;;;;8.81;100.00;92337.25;5086814;28;20531;-70
2023/04/17 04:35:24;;;;;;;15.50;11.63;;;;;;;8.80;100.00;92333.13;5087536;28;20052;-69
2023/04/17 04:37:53;;;;;;;16.83;12.27;;;;;;;8.84;100.00;92330.91;5087455;28;20751;-69
2023/04/17 04:40:20;;;;;;;17.42;14.10;;;;;;;8.87;100.00;92338.16;5087295;28;20489;-69
2023/04/17 04:42:48;;;;;;;16.45;12.70;;;;;;;8.90;100.00;92342.84;5087344;28;20040;-69
2023/04/17 04:45:15;;;;;;;16.60;11.60;;;;;;;8.74;100.00;92312.75;5087502;28;20052;-71
2023/04/17 04:47:42;;;;;;;16.38;12.82;;;;;;;8.98;100.00;92343.50;5071475;28;20415;-72
2023/04/17 04:50:09;;;;;;;16.15;12.32;;;;;;;8.97;100.00;92340.16;5067174;28;20102;-72
2023/04/17 04:52:37;;;;;;;23.73;18.17;;;;;;;8.95;100.00;92337.81;5086423;28;20040;-71
2023/04/17 04:55:05;;;;;;;18.17;16.20;;;;;;;9.03;100.00;92339.28;5091574;28;20098;-72
2023/04/17 04:57:32;;;;;;;26.33;20.83;;;;;;;9.05;100.00;92336.50;5091335;28;20052;-72
2023/04/17 04:59:58;;;;;;;25.55;18.58;;;;;;;9.07;100.00;92350.66;5091454;28;20039;-72
2023/04/17 05:02:25;;;;;;;17.63;14.15;;;;;;;9.11;100.00;92348.41;5090431;28;20089;-72
2023/04/17 05:04:52;;;;;;;18.38;13.50;;;;;;;9.08;100.00;92347.09;5091261;28;20052;-72
2023/04/17 05:07:18;;;;;;;20.17;13.43;;;;;;;9.16;100.00;92353.66;5091514;28;20040;-71
2023/04/17 05:09:46;;;;;;;22.42;15.60;;;;;;;9.16;100.00;92358.78;5091020;28;20048;-71
2023/04/17 05:12:13;;;;;;;27.42;18.63;;;;;;;9.17;100.00;92362.13;5090493;28;20048;-72
2023/04/17 05:14:40;;;;;;;26.80;20.60;;;;;;;9.18;100.00;92356.00;5091071;28;20500;-71
2023/04/17 05:17:07;;;;;;;31.73;23.67;;;;;;;9.22;100.00;92362.25;5090193;28;20048;-72
2023/04/17 05:19:33;;;;;;;30.67;21.27;;;;;;;9.30;100.00;92356.78;5090793;28;20043;-72
2023/04/17 05:22:00;;;;;;;30.50;22.85;;;;;;;9.35;100.00;92358.69;5090673;28;20044;-72
2023/04/17 05:24:27;;;;;;;33.88;24.10;;;;;;;9.44;100.00;92357.34;5090992;28;20113;-72
2023/04/17 05:26:55;;;;;;;32.42;22.13;;;;;;;9.51;100.00;92353.88;5090100;28;20074;-72
2023/04/17 05:29:23;;;;;;;27.75;19.90;;;;;;;9.61;100.00;92354.09;5090454;28;20044;-72
2023/04/17 05:31:50;;;;;;;27.23;17.58;;;;;;;9.71;100.00;92354.31;5090319;28;20131;-72
2023/04/17 05:34:17;;;;;;;25.70;17.20;;;;;;;9.82;100.00;92347.59;5090941;28;20052;-72
2023/04/17 05:36:43;;;;;;;19.08;14.85;;;;;;;9.87;100.00;92355.41;5090864;28;20097;-72
2023/04/17 05:39:10;;;;;;;21.48;14.48;;;;;;;9.95;100.00;92353.50;5076181;28;20086;-72
2023/04/17 05:41:37;;;;;;;20.30;14.73;;;;;;;10.01;100.00;92355.16;5089881;28;20040;-72
2023/04/17 05:44:05;;;;;;;21.33;13.95;;;;;;;10.11;100.00;92363.06;5089714;28;20052;-72
2023/04/17 05:46:32;;;;;;;18.55;13.45;;;;;;;10.19;100.00;92358.56;5090410;28;20151;-72
2023/04/17 05:48:58;;;;;;;17.60;13.30;;;;;;;10.23;100.00;92357.88;5089864;28;20922;-72
2023/04/17 05:51:26;;;;;;;21.52;12.02;;;;;;;10.28;100.00;92354.66;5090424;28;20161;-72
2023/04/17 05:53:53;;;;;;;19.08;11.98;;;;;;;10.37;100.00;92353.25;5089908;28;20477;-72
2023/04/17 05:56:19;;;;;;;19.27;11.65;;;;;;;10.45;100.00;92359.84;5090453;28;20101;-72
2023/04/17 05:58:46;;;;;;;17.25;12.10;;;;;;;10.54;100.00;92365.38;5089943;28;20094;-72
2023/04/17 06:01:16;;;;;;;20.02;11.90;;;;;;;10.63;100.00;92365.78;5089957;28;20102;-72
2023/04/17 06:03:42;;;;;;;18.73;12.02;;;;;;;10.79;100.00;92361.72;5089529;28;20052;-72
2023/04/17 06:06:09;;;;;;;17.92;12.00;;;;;;;10.90;100.00;92366.00;5090015;28;20052;-72
2023/04/17 06:08:36;;;;;;;14.30;11.27;;;;;;;10.98;100.00;92372.56;5089487;28;20554;-72
2023/04/17 06:11:02;;;;;;;17.83;10.93;;;;;;;11.04;100.00;92374.19;5090035;28;20219;-72
2023/04/17 06:13:29;;;;;;;16.30;10.65;;;;;;;11.18;100.00;92379.03;5089647;28;20089;-72
2023/04/17 06:15:56;;;;;;;18.00;10.18;;;;;;;10.90;100.00;92380.63;5089748;28;20043;-72
2023/04/17 06:18:24;;;;;;;16.38;10.38;;;;;;;10.95;100.00;92383.28;5089848;28;20523;-72
2023/04/17 06:20:51;;;;;;;15.27;10.98;;;;;;;11.09;100.00;92378.63;5089497;28;20044;-72
2023/04/17 06:23:18;;;;;;;19.23;11.70;;;;;;;11.08;100.00;92380.41;5089482;28;20050;-72
2023/04/17 06:25:44;;;;;;;17.35;10.88;;;;;;;11.00;100.00;92380.00;5089749;28;20040;-72
2023/04/17 06:28:11;;;;;;;15.70;10.75;;;;;;;11.12;100.00;92380.75;5089558;28;20096;-72
2023/04/17 06:30:38;;;;;;;18.55;10.77;;;;;;;11.17;100.00;92385.97;5088724;28;20098;-72
2023/04/17 06:33:04;;;;;;;14.68;10.98;;;;;;;11.13;100.00;92391.78;5089102;28;20089;-72
2023/04/17 06:35:33;;;;;;;17.45;10.27;;;;;;;11.55;100.00;92383.69;5089648;28;20044;-72
2023/04/17 06:38:00;;;;;;;14.40;10.23;;;;;;;11.29;100.00;92392.81;5089401;28;20122;-72
2023/04/17 06:40:27;;;;;;;16.60;10.30;;;;;;;11.55;100.00;92391.41;5088766;28;20044;-72
2023/04/17 06:42:54;;;;;;;10.75;8.75;;;;;;;11.79;100.00;92393.03;5089045;28;20552;-72
2023/04/17 06:45:20;;;;;;;18.88;9.52;;;;;;;11.93;100.00;92380.59;5088649;28;20437;-72
2023/04/17 06:47:47;;;;;;;15.07;9.25;;;;;;;11.93;100.00;92396.78;5089224;28;20047;-73
2023/04/17 06:50:14;;;;;;;16.05;9.13;;;;;;;12.11;100.00;92398.34;5088879;28;20044;-72
2023/04/17 06:52:42;;;;;;;16.17;9.50;;;;;;;12.34;100.00;92388.81;5088636;28;20538;-73
2023/04/17 06:55:09;;;;;;;12.73;7.38;;;;;;;12.19;100.00;92404.88;5086098;28;20549;-73
2023/04/17 06:57:37;;;;;;;14.23;8.05;;;;;;;12.19;100.00;92404.88;5088770;28;20050;-72
2023/04/17 07:00:05;;;;;;;11.40;7.53;;;;;;;12.12;100.00;92402.47;5088553;28;20044;-73
2023/04/17 07:02:32;;;;;;;11.60;7.10;;;;;;;12.37;100.00;92406.34;5088830;28;20097;-72
2023/04/17 07:05:01;;;;;;;10.18;7.07;;;;;;;12.03;100.00;92365.25;5074979;28;20048;-73
2023/04/17 07:07:29;;;;;;;10.15;6.30;;;;;;;12.61;100.00;92410.47;5088997;28;20044;-73
2023/04/17 07:09:57;;;;;;;13.75;7.10;;;;;;;12.84;100.00;92406.84;5087806;28;20054;-73
2023/04/17 07:12:25;;;;;;;14.93;7.28;;;;;;;13.04;100.00;92400.31;5088143;28;20048;-73
2023/04/17 07:14:52;;;;;;;12.38;7.18;;;;;;;13.39;100.00;92409.38;5088740;28;20466;-73
2023/04/17 07:17:18;;;;;;;10.40;6.68;;;;;;;13.60;100.00;92397.44;5074708;28;20045;-72
2023/04/17 07:19:46;;;;;;;8.70;5.47;;;;;;;13.84;100.00;92402.22;5088617;28;20036;-73
2023/04/17 07:22:12;;;;;;;9.15;6.22;;;;;;;13.93;100.00;92407.69;5088671;28;20052;-73
2023/04/17 07:24:39;;;;;;;11.43;6.22;;;;;;;14.22;100.00;92406.53;5087046;28;20047;-73
2023/04/17 07:27:07;;;;;;;7.72;5.95;;;;;;;14.38;100.00;92415.13;5076257;28;20093;-73
2023/04/17 07:29:34;;;;;;;9.65;5.22;;;;;;;14.43;100.00;92422.88;5087801;28;20052;-73
2023/04/17 07:32:03;;;;;;;10.98;6.30;;;;;;;14.51;99.94;92416.47;5088103;28;20044;-73
2023/04/17 07:34:31;;;;;;;12.85;6.38;;;;;;;14.66;97.63;92418.31;5088302;28;20571;-73
2023/04/17 07:36:58;;;;;;;7.68;5.30;;;;;;;14.72;97.86;92416.53;5088227;28;20093;-73
2023/04/17 07:39:29;;;;;;;9.77;4.93;;;;;;;14.71;94.46;92413.16;5087775;28;20040;-73
2023/04/17 07:41:56;;;;;;;16.00;6.75;;;;;;;14.79;98.07;92410.13;5088034;28;20127;-73
2023/04/17 07:44:24;;;;;;;11.75;5.55;;;;;;;14.90;98.13;92416.09;5074300;28;20043;-73
2023/04/17 07:46:51;;;;;;;10.55;7.20;;;;;;;14.81;96.18;92396.91;5088074;28;20093;-73
2023/04/17 07:49:18;;;;;;;8.02;4.63;;;;;;;14.33;90.87;92421.06;5088011;28;20037;-73
2023/04/17 07:51:44;;;;;;;12.27;5.45;;;;;;;14.24;93.30;92417.38;5088010;28;20124;-73
2023/04/17 07:54:11;;;;;;;12.90;6.15;;;;;;;14.25;94.53;92417.13;5087683;28;20497;-73
2023/04/17 07:56:38;;;;;;;11.43;6.10;;;;;;;14.48;99.72;92409.22;5087801;28;20557;-73
2023/04/17 07:59:04;;;;;;;9.60;5.50;;;;;;;14.35;91.88;92421.56;5087119;28;20538;-73
2023/04/17 08:01:32;;;;;;;11.93;6.63;;;;;;;14.41;93.78;92415.38;5087163;28;20056;-73
2023/04/17 08:03:59;;;;;;;10.32;5.40;;;;;;;13.85;94.69;92415.91;5087566;28;20723;-73
2023/04/17 08:06:26;;;;;;;10.02;5.78;;;;;;;14.28;97.44;92415.88;5088013;28;20045;-73
2023/04/17 08:08:53;;;;;;;10.98;5.30;;;;;;;14.10;91.35;92422.22;5087299;28;20044;-73
2023/04/17 08:11:20;;;;;;;10.98;5.75;;;;;;;14.24;95.12;92412.22;5076775;28;20051;-73
2023/04/17 08:13:46;;;;;;;11.52;6.18;;;;;;;14.30;95.93;92413.78;5084016;28;20044;-73
2023/04/17 08:16:13;;;;;;;10.57;6.68;;;;;;;14.38;93.78;92410.75;5087612;28;20101;-73
2023/04/17 08:18:41;;;;;;;9.38;5.53;;;;;;;14.58;91.99;92419.59;5087313;28;20047;-73
2023/04/17 08:21:08;;;;;;;10.75;6.22;;;;;;;14.52;93.50;92421.38;5078656;28;20055;-73
2023/04/17 08:23:35;;;;;;;15.25;6.65;;;;;;;14.14;96.66;92421.50;5082390;28;20097;-73
2023/04/17 08:26:02;;;;;;;11.98;6.32;;;;;;;14.47;97.33;92418.00;5078276;28;20051;-73
2023/04/17 08:28:28;;;;;;;10.98;6.13;;;;;;;14.60;98.14;92394.28;5082570;28;20044;-73
2023/04/17 08:30:55;;;;;;;13.52;7.25;;;;;;;14.31;95.95;92415.38;5078287;28;20494;-73
2023/04/17 08:33:22;;;;;;;12.00;7.03;;;;;;;13.60;98.04;92412.13;5083213;28;20135;-73
2023/04/17 08:35:51;;;;;;;12.40;6.25;;;;;;;13.57;98.90;92413.38;5087933;28;20121;-73
2023/04/17 08:38:18;;;;;;;9.65;6.25;;;;;;;14.01;98.99;92414.19;5087138;28;20129;-73
2023/04/17 08:40:50;;;;;;;11.00;6.57;;;;;;;13.93;100.00;92409.50;5087195;28;20109;-73
2023/04/17 08:43:19;;;;;;;9.98;6.38;;;;;;;13.70;98.03;92399.28;5087336;28;20051;-73
2023/04/17 08:45:52;;;;;;;15.15;10.82;;;;;;;13.74;100.00;92413.25;5087402;28;20040;-73
2023/04/17 08:48:19;;;;;;;15.13;7.47;;;;;;;13.42;100.00;92414.03;5087003;28;20052;-73
2023/04/17 08:50:48;;;;;;;12.30;7.20;;;;;;;13.04;100.00;92379.69;5087364;28;20048;-73
2023/04/17 08:53:16;;;;;;;9.38;6.70;;;;;;;13.53;100.00;92406.41;5086835;28;20052;-73
2023/04/17 08:55:43;;;;;;;11.98;7.40;;;;;;;13.48;100.00;92409.72;5086775;28;20047;-73
2023/04/17 08:58:11;;;;;;;7.97;6.45;;;;;;;13.27;100.00;92398.44;5086952;28;20093;-73
2023/04/17 09:00:40;;;;;;;12.50;6.40;;;;;;;13.06;100.00;92417.09;5086974;28;20048;-73
2023/04/17 09:03:08;;;;;;;12.20;6.90;;;;;;;13.05;100.00;92418.13;5087303;28;20043;-73
2023/04/17 09:05:36;;;;;;;10.93;7.65;;;;;;;13.10;100.00;92409.66;5086732;28;20462;-73
2023/04/17 09:08:13;;;;;;;12.65;7.93;;;;;;;13.14;100.00;92404.81;5087229;28;20080;-73
2023/04/17 09:10:43;;;;;;;10.95;7.00;;;;;;;12.86;100.00;92415.09;5086320;28;20672;-73
2023/04/17 09:13:13;;;;;;;11.85;8.73;;;;;;;12.72;100.00;92406.97;5086908;28;20082;-73
2023/04/17 09:15:40;;;;;;;11.05;7.90;;;;;;;13.05;100.00;92412.19;5086846;28;20040;-73
2023/04/17 09:18:22;;;;;;;13.13;8.57;;;;;;;13.22;100.00;92410.28;5087088;28;20093;-73
2023/04/17 09:20:50;;;;;;;19.05;10.15;;;;;;;13.32;100.00;92413.94;5086779;28;20044;-73
2023/04/17 09:23:17;;;;;;;12.00;7.68;;;;;;;12.86;100.00;92411.78;5086754;28;20546;-73
2023/04/17 09:25:46;;;;;;;14.77;8.25;;;;;;;12.97;100.00;92410.84;5086957;28;20093;-73
2023/04/17 09:28:15;;;;;;;9.13;5.53;;;;;;;12.49;100.00;92397.75;5086402;28;20040;-73
2023/04/17 09:30:42;;;;;;;8.38;6.03;;;;;;;12.23;100.00;92416.22;5086654;28;20044;-73
2023/04/17 09:33:10;;;;;;;10.63;6.18;;;;;;;12.13;100.00;92408.41;5086090;28;20052;-73
2023/04/17 09:35:38;;;;;;;10.23;6.47;;;;;;;12.12;100.00;92399.09;5086603;28;20500;-73
2023/04/17 09:38:05;;;;;;;8.35;6.00;;;;;;;12.20;100.00;92410.78;5086450;28;20571;-73
2023/04/17 09:40:37;;;;;;;10.52;6.88;;;;;;;12.31;100.00;92406.56;5090739;28;20048;-73
2023/04/17 09:43:07;;;;;;;11.80;7.40;;;;;;;12.42;100.00;92405.66;5080171;28;20100;-73
2023/04/17 09:45:37;;;;;;;12.73;7.75;;;;;;;12.46;100.00;92411.88;5070920;28;20424;-73
2023/04/17 09:48:06;;;;;;;8.80;6.15;;;;;;;12.47;100.00;92410.06;5090405;28;20135;-73
2023/04/17 09:50:32;;;;;;;11.88;6.65;;;;;;;12.45;100.00;92397.41;5090233;28;20040;-73
2023/04/17 09:52:59;;;;;;;11.55;5.45;;;;;;;12.54;100.00;92416.59;5089211;28;20512;-73
2023/04/17 09:55:28;;;;;;;7.97;5.15;;;;;;;12.65;100.00;92420.03;5089752;28;20082;-73
2023/04/17 09:57:57;;;;;;;9.35;5.93;;;;;;;12.67;100.00;92418.03;5089063;28;20130;-73
2023/04/17 10:00:26;;;;;;;9.43;5.00;;;;;;;12.80;100.00;92413.50;5075632;28;20097;-73
2023/04/17 10:02:55;;;;;;;11.38;6.28;;;;;;;13.01;100.00;92414.47;5089729;28;20040;-73
2023/04/17 10:05:23;;;;;;;10.35;6.13;;;;;;;13.24;100.00;92410.03;5077177;28;20101;-73
2023/04/17 10:07:50;;;;;;;8.02;5.10;;;;;;;13.41;100.00;92407.31;5089487;28;20048;-73
2023/04/17 10:10:23;;;;;;;8.70;5.30;;;;;;;13.49;100.00;92395.81;5062963;28;20669;-73
2023/04/17 10:12:51;;;;;;;10.55;4.30;;;;;;;13.73;100.00;92421.25;5088452;28;20056;-73
2023/04/17 10:15:20;;;;;;;6.50;3.85;;;;;;;13.56;93.82;92427.31;5090005;28;20048;-73
2023/04/17 10:17:48;;;;;;;16.88;7.07;;;;;;;13.68;95.03;92416.03;5089503;28;20105;-73
2023/04/17 10:20:35;;;;;;;9.00;5.40;;;;;;;13.86;99.17;92428.56;5088786;28;20396;-73
2023/04/17 10:23:39;;;;;;;5.85;4.28;;;;;;;13.66;95.99;92429.19;5089152;28;20072;-73
2023/04/17 10:26:34;;;;;;;15.45;7.03;;;;;;;13.81;98.87;92415.63;5089545;28;20882;-72
2023/04/17 10:29:01;;;;;;;11.95;6.13;;;;;;;13.32;95.32;92422.47;5079942;28;20051;-72
2023/04/17 10:32:16;;;;;;;10.38;5.68;;;;;;;12.96;98.57;92414.41;5089336;28;20105;-72
2023/04/17 10:34:44;;;;;;;18.35;11.15;;;;;;;12.81;97.63;92415.06;5089286;28;20141;-72
2023/04/17 10:37:14;;;;;;;15.48;7.30;;;;;;;12.60;97.24;92409.72;5087817;28;20073;-72
2023/04/17 10:40:00;;;;;;;16.08;7.78;;;;;;;12.72;98.30;92412.13;5088724;28;20123;-72
2023/04/17 10:42:29;;;;;;;10.45;5.28;;;;;;;12.70;94.99;92388.41;5089274;28;20496;-72
2023/04/17 10:45:00;;;;;;;11.38;5.57;;;;;;;13.11;98.84;92413.81;5088800;28;20048;-72
2023/04/17 10:47:34;;;;;;;6.10;3.97;;;;;;;13.39;99.67;92399.06;5089090;28;20084;-72
2023/04/17 10:50:05;;;;;;;11.10;6.00;;;;;;;13.82;97.05;92412.03;5088463;28;20081;-72
2023/04/17 10:52:36;;;;;;;27.65;10.95;;;;;;;14.15;95.19;92415.28;5088478;28;20050;-72
2023/04/17 10:55:04;;;;;;;44.42;12.68;;;;;;;14.42;90.27;92416.97;5084483;28;20056;-72
2023/04/17 10:57:52;;;;;;;12.63;5.70;;;;;;;14.77;94.73;92408.81;5085068;28;20037;-72
2023/04/17 11:00:20;;;;;;;45.22;23.95;;;;;;;15.06;90.49;92409.16;5088286;28;20051;-72
2023/04/17 11:02:49;;;;;;;7.13;4.38;;;;;;;14.90;84.08;92395.41;5088754;28;20051;-72
2023/04/17 11:05:17;;;;;;;6.55;3.53;;;;;;;15.19;84.72;92417.44;5075316;28;20055;-72
2023/04/17 11:07:49;;;;;;;7.63;3.70;;;;;;;14.66;84.56;92387.28;5084353;28;20076;-72
2023/04/17 11:10:18;;;;;;;6.93;3.80;;;;;;;14.36;88.82;92414.59;5087783;28;20055;-72
2023/04/17 11:12:47;;;;;;;9.88;6.75;;;;;;;14.01;88.70;92414.19;5088635;28;20056;-72
2023/04/17 11:15:15;;;;;;;169.27;80.00;;;;;;;13.87;89.60;92406.09;5088105;28;20135;-72
2023/04/17 11:17:47;;;;;;;9.45;5.75;;;;;;;13.87;90.33;92406.09;5087502;28;20061;-72
2023/04/17 11:20:16;;;;;;;6.63;3.40;;;;;;;13.62;88.39;92403.09;5087751;28;20048;-72
2023/04/17 11:22:45;;;;;;;7.43;5.20;;;;;;;13.49;93.41;92388.84;5088157;28;20055;-72
2023/04/17 11:25:23;;;;;;;8.85;5.10;;;;;;;13.00;94.84;92405.19;5087996;28;20039;-72